Time;durP1;ratioP1;P1;durP2;ratioP2;P2;SDS_P1;SDS_P2;PMS_P1;PMS_P2;Temp;Humidity;BMP_temperature;BMP_pressure;BME280_temperature;BME280_humidity;BME280_pressure;Samples;Min_cycle;Max_cycle;Signal;HPM_P1;HPM_P2
2022/10/27 00:02:16;;;;;;;12.25;9.73;;;;;;;3.55;58.10;100180.97;5052312;28;20098;-56
2022/10/27 00:04:41;;;;;;;14.57;9.98;;;;;;;3.61;57.99;100182.50;5052075;28;20036;-54
2022/10/27 00:07:07;;;;;;;13.20;9.57;;;;;;;3.65;58.00;100192.00;5051702;28;20029;-49
2022/10/27 00:09:32;;;;;;;13.70;10.23;;;;;;;3.68;57.61;100191.03;5037552;28;20035;-53
2022/10/27 00:11:58;;;;;;;17.02;9.85;;;;;;;3.57;58.22;100180.94;5035901;28;20116;-53
2022/10/27 00:14:23;;;;;;;14.70;9.25;;;;;;;3.70;57.51;100179.41;5032587;28;20086;-53
2022/10/27 00:16:53;;;;;;;14.48;9.70;;;;;;;3.67;57.69;100187.50;5031737;28;20041;-52
2022/10/27 00:19:20;;;;;;;13.15;9.15;;;;;;;3.56;57.99;100190.66;5032545;28;20416;-50
2022/10/27 00:21:46;;;;;;;13.57;8.45;;;;;;;3.52;57.99;100186.41;5046411;28;20074;-55
2022/10/27 00:24:12;;;;;;;14.48;9.48;;;;;;;3.51;57.97;100186.50;5051875;28;20045;-55
2022/10/27 00:26:37;;;;;;;13.80;8.65;;;;;;;3.49;57.98;100185.69;5051981;28;20033;-53
2022/10/27 00:29:03;;;;;;;12.07;8.57;;;;;;;3.55;57.63;100183.63;5052223;28;20056;-53
2022/10/27 00:31:28;;;;;;;13.25;8.25;;;;;;;3.55;57.70;100188.09;5046381;28;20039;-55
2022/10/27 00:33:53;;;;;;;11.82;8.70;;;;;;;3.55;57.83;100183.63;5055425;28;20032;-60
2022/10/27 00:36:21;;;;;;;15.88;8.65;;;;;;;3.54;57.65;100192.50;5054779;28;20029;-56
2022/10/27 00:38:47;;;;;;;14.15;8.45;;;;;;;3.50;57.58;100180.34;5039517;28;20044;-54
2022/10/27 00:41:27;;;;;;;15.25;9.18;;;;;;;3.64;57.27;100186.81;5052900;28;20029;-52
2022/10/27 00:43:54;;;;;;;14.90;8.90;;;;;;;3.52;57.70;100180.28;5053876;28;20382;-54
2022/10/27 00:46:39;;;;;;;13.57;8.55;;;;;;;3.57;57.61;100181.78;5054878;28;20028;-56
2022/10/27 00:49:28;;;;;;;15.55;8.10;;;;;;;3.64;57.34;100184.16;5053810;28;20045;-55
2022/10/27 00:52:01;;;;;;;13.93;8.25;;;;;;;3.57;57.75;100184.41;5035267;28;20573;-56
2022/10/27 00:54:29;;;;;;;11.32;8.40;;;;;;;3.54;57.66;100179.25;5034371;28;20474;-58
2022/10/27 00:56:56;;;;;;;16.05;8.52;;;;;;;3.49;57.82;100188.34;5034986;28;20029;-52
2022/10/27 00:59:23;;;;;;;14.43;8.70;;;;;;;3.56;57.64;100190.66;5037739;28;20068;-54
2022/10/27 01:01:51;;;;;;;14.35;8.43;;;;;;;3.53;58.11;100180.19;5054996;28;20033;-56
2022/10/27 01:04:24;;;;;;;16.35;8.63;;;;;;;3.57;57.27;100187.06;5054821;28;20099;-52
2022/10/27 01:06:50;;;;;;;13.90;8.13;;;;;;;3.54;58.40;100181.91;5054780;28;20056;-53
2022/10/27 01:09:16;;;;;;;14.85;8.35;;;;;;;3.58;57.99;100180.00;5052913;28;20637;-53
2022/10/27 01:11:41;;;;;;;11.80;8.52;;;;;;;3.57;57.72;100181.78;5034892;28;20057;-52
2022/10/27 01:14:06;;;;;;;16.27;9.15;;;;;;;3.55;57.35;100175.69;5042842;28;20029;-55
2022/10/27 01:16:48;;;;;;;13.20;7.90;;;;;;;3.63;58.23;100182.44;5054607;28;20116;-54
2022/10/27 01:19:46;;;;;;;9.70;7.47;;;;;;;3.76;56.96;100182.72;5053670;28;20033;-53
2022/10/27 01:22:34;;;;;;;13.35;8.05;;;;;;;3.64;57.48;100162.97;5022620;28;20064;-58
2022/10/27 01:25:08;;;;;;;13.20;8.13;;;;;;;3.57;57.48;100172.97;5024188;28;20388;-53
2022/10/27 01:27:52;;;;;;;12.55;8.38;;;;;;;3.57;57.41;100171.19;5034771;28;20126;-53
2022/10/27 01:30:20;;;;;;;13.43;7.88;;;;;;;3.40;58.30;100156.06;5043562;28;20033;-54
2022/10/27 01:32:58;;;;;;;10.35;7.88;;;;;;;3.40;58.44;100161.38;5049126;28;20364;-53
2022/10/27 01:35:37;;;;;;;11.10;8.02;;;;;;;3.39;58.43;100170.25;5034229;28;20462;-51
2022/10/27 01:38:09;;;;;;;15.07;7.95;;;;;;;3.30;58.56;100160.06;5034972;28;20036;-56
2022/10/27 01:40:43;;;;;;;11.93;7.55;;;;;;;3.29;58.60;100161.84;5033614;28;20048;-55
2022/10/27 01:43:14;;;;;;;15.48;8.60;;;;;;;3.24;58.45;100161.19;5034250;28;20045;-56
2022/10/27 01:45:41;;;;;;;11.82;7.75;;;;;;;3.24;58.08;100155.03;5034769;28;20060;-55
2022/10/27 01:48:09;;;;;;;11.93;7.78;;;;;;;3.28;58.52;100162.78;5034920;28;20061;-55
2022/10/27 01:50:37;;;;;;;12.43;7.63;;;;;;;3.28;58.56;100159.28;5045700;28;20028;-55
2022/10/27 01:53:03;;;;;;;11.65;7.63;;;;;;;3.22;58.41;100157.78;5038662;28;20110;-58
2022/10/27 01:55:53;;;;;;;13.40;7.47;;;;;;;3.36;58.46;100166.84;5033985;28;20417;-56
2022/10/27 01:58:30;;;;;;;10.45;7.13;;;;;;;3.24;58.58;100168.28;5040270;28;20032;-51
2022/10/27 02:01:08;;;;;;;11.57;7.07;;;;;;;3.13;58.99;100161.69;5053891;28;20040;-56
2022/10/27 02:03:55;;;;;;;13.23;7.43;;;;;;;3.09;59.24;100162.75;5053465;28;20535;-54
2022/10/27 02:06:20;;;;;;;15.02;7.22;;;;;;;2.83;59.13;100134.78;5052751;28;20049;-53
2022/10/27 02:08:53;;;;;;;13.50;7.72;;;;;;;2.81;59.28;100126.94;5043676;28;20353;-56
2022/10/27 02:11:19;;;;;;;12.85;6.85;;;;;;;2.97;59.41;100166.78;5044340;28;20033;-54
2022/10/27 02:13:45;;;;;;;10.57;7.13;;;;;;;2.93;59.59;100166.97;5053387;28;20082;-54
2022/10/27 02:16:19;;;;;;;11.27;6.50;;;;;;;2.91;59.57;100158.25;5053365;28;20112;-52
2022/10/27 02:18:49;;;;;;;9.68;6.53;;;;;;;2.93;59.58;100162.56;5043847;28;20072;-56
2022/10/27 02:21:16;;;;;;;11.20;7.32;;;;;;;3.03;59.45;100164.78;5033316;28;20038;-53
2022/10/27 02:23:42;;;;;;;9.35;6.70;;;;;;;2.97;59.76;100164.16;5033582;28;20029;-56
2022/10/27 02:26:25;;;;;;;11.43;7.40;;;;;;;3.00;59.46;100169.31;5033183;28;20041;-51
2022/10/27 02:28:59;;;;;;;11.13;7.15;;;;;;;2.93;59.80;100161.69;5042650;28;20500;-53
2022/10/27 02:31:31;;;;;;;12.23;6.82;;;;;;;2.91;60.01;100163.53;5053336;28;20036;-55
2022/10/27 02:33:58;;;;;;;12.23;7.38;;;;;;;2.90;59.92;100164.47;5035666;28;20076;-53
2022/10/27 02:36:24;;;;;;;14.27;6.47;;;;;;;2.85;60.14;100148.78;5032967;28;20052;-56
2022/10/27 02:38:49;;;;;;;10.40;6.97;;;;;;;2.96;60.01;100161.56;5042453;28;20467;-52
2022/10/27 02:41:15;;;;;;;9.90;7.05;;;;;;;3.01;60.14;100159.56;5052320;28;20039;-53
2022/10/27 02:43:40;;;;;;;9.90;6.95;;;;;;;3.10;59.62;100153.00;5052034;28;20041;-56
2022/10/27 02:46:06;;;;;;;10.70;7.30;;;;;;;3.18;59.87;100153.56;5053185;28;20040;-54
2022/10/27 02:48:31;;;;;;;12.23;6.72;;;;;;;3.30;59.09;100155.63;5061644;28;20033;-59
2022/10/27 02:50:57;;;;;;;11.07;7.18;;;;;;;3.39;58.75;100157.00;5032947;28;20037;-56
2022/10/27 02:53:23;;;;;;;12.52;7.03;;;;;;;3.41;58.62;100156.94;5048234;28;20037;-55
2022/10/27 02:55:48;;;;;;;13.05;6.95;;;;;;;3.49;58.54;100160.09;5032941;28;20451;-56
2022/10/27 02:58:14;;;;;;;11.43;6.38;;;;;;;3.54;59.13;100157.25;5036395;28;20147;-56
2022/10/27 03:00:39;;;;;;;11.50;6.97;;;;;;;3.52;58.28;100162.59;5052662;28;20029;-52
2022/10/27 03:03:05;;;;;;;11.73;6.95;;;;;;;3.30;58.74;100131.81;5052737;28;20033;-56
2022/10/27 03:05:30;;;;;;;12.73;6.93;;;;;;;3.34;58.90;100150.19;5053101;28;20086;-56
2022/10/27 03:07:56;;;;;;;10.32;7.10;;;;;;;3.39;59.17;100161.44;5049915;28;20029;-55
2022/10/27 03:10:21;;;;;;;14.65;7.13;;;;;;;3.24;59.26;100120.63;5051491;28;20041;-51
2022/10/27 03:12:47;;;;;;;8.95;6.25;;;;;;;3.44;58.61;100147.06;5050562;28;20029;-50
2022/10/27 03:15:13;;;;;;;12.48;6.70;;;;;;;3.48;59.21;100154.84;5032784;28;20116;-55
2022/10/27 03:17:46;;;;;;;9.50;7.15;;;;;;;3.59;58.91;100148.13;5034891;28;20048;-55
2022/10/27 03:20:13;;;;;;;14.07;6.40;;;;;;;3.55;58.86;100154.50;5047456;28;20029;-56
2022/10/27 03:22:39;;;;;;;11.00;6.80;;;;;;;3.56;58.36;100150.94;5032793;28;20083;-56
2022/10/27 03:25:05;;;;;;;10.63;6.32;;;;;;;3.61;58.71;100147.19;5032716;28;20069;-54
2022/10/27 03:27:31;;;;;;;11.60;7.07;;;;;;;3.66;58.33;100155.81;5033639;28;20107;-54
2022/10/27 03:29:56;;;;;;;11.77;6.30;;;;;;;3.75;58.37;100146.59;5052144;28;20394;-53
2022/10/27 03:32:22;;;;;;;11.15;6.47;;;;;;;3.72;58.03;100140.47;5043974;28;20092;-53
2022/10/27 03:34:47;;;;;;;9.63;6.35;;;;;;;3.69;58.55;100145.91;5032465;28;20056;-53
2022/10/27 03:37:13;;;;;;;13.82;7.00;;;;;;;3.72;58.68;100150.22;5032216;28;20025;-56
2022/10/27 03:39:38;;;;;;;14.82;6.88;;;;;;;3.68;58.29;100148.66;5050413;28;20120;-51
2022/10/27 03:42:04;;;;;;;10.65;6.85;;;;;;;3.62;58.00;100133.03;5052587;28;20059;-54
2022/10/27 03:44:29;;;;;;;12.45;7.07;;;;;;;3.70;58.66;100165.31;5052414;28;20359;-53
2022/10/27 03:46:55;;;;;;;12.00;6.55;;;;;;;3.67;58.48;100163.66;5066983;28;20064;-53
2022/10/27 03:49:20;;;;;;;12.32;7.18;;;;;;;3.63;59.19;100164.75;5048829;28;20032;-53
2022/10/27 03:51:46;;;;;;;13.00;6.97;;;;;;;3.70;58.24;100165.31;5051572;28;20090;-57
2022/10/27 03:54:11;;;;;;;11.38;7.05;;;;;;;3.73;58.84;100168.66;5051633;28;20047;-57
2022/10/27 03:56:37;;;;;;;9.55;6.70;;;;;;;3.82;58.83;100169.19;5051412;28;20090;-57
2022/10/27 03:59:02;;;;;;;11.40;7.30;;;;;;;3.87;58.06;100164.53;5051443;28;20064;-55
2022/10/27 04:01:31;;;;;;;12.88;6.70;;;;;;;3.85;58.24;100167.25;5052026;28;20094;-56
2022/10/27 04:03:56;;;;;;;14.68;7.38;;;;;;;3.96;58.26;100160.59;5053022;28;20032;-52
2022/10/27 04:06:22;;;;;;;10.00;7.22;;;;;;;3.96;57.99;100158.78;5050655;28;20479;-53
2022/10/27 04:08:47;;;;;;;12.05;6.97;;;;;;;3.92;58.47;100165.16;5041204;28;20045;-52
2022/10/27 04:11:13;;;;;;;15.07;7.03;;;;;;;3.92;58.20;100161.66;5040445;28;20025;-53
2022/10/27 04:13:39;;;;;;;11.00;7.75;;;;;;;3.88;58.53;100164.47;5055682;28;20036;-53
2022/10/27 04:16:05;;;;;;;10.15;7.00;;;;;;;3.96;58.33;100174.69;5055361;28;20040;-55
2022/10/27 04:18:31;;;;;;;13.32;7.40;;;;;;;4.02;58.35;100176.19;5047854;28;20045;-56
2022/10/27 04:21:04;;;;;;;12.48;6.97;;;;;;;4.05;58.21;100168.09;5034621;28;20026;-56
2022/10/27 04:23:30;;;;;;;11.50;6.93;;;;;;;4.03;58.18;100185.84;5035705;28;20047;-55
2022/10/27 04:25:55;;;;;;;17.05;7.00;;;;;;;4.05;57.92;100189.28;5035778;28;20112;-57
2022/10/27 04:28:21;;;;;;;13.63;7.05;;;;;;;4.08;58.02;100183.84;5035330;28;20029;-63
2022/10/27 04:30:47;;;;;;;12.52;7.18;;;;;;;4.17;57.70;100179.88;5046944;28;20033;-61
2022/10/27 04:33:13;;;;;;;11.38;6.32;;;;;;;4.17;57.75;100177.22;5038781;28;20313;-56
2022/10/27 04:35:38;;;;;;;11.02;7.07;;;;;;;4.15;57.77;100182.63;5034484;28;20057;-55
2022/10/27 04:38:03;;;;;;;15.00;8.00;;;;;;;4.20;57.80;100178.88;5035450;28;20049;-53
2022/10/27 04:40:29;;;;;;;9.93;6.63;;;;;;;4.26;57.81;100187.41;5035172;28;20021;-54
2022/10/27 04:42:55;;;;;;;15.88;7.63;;;;;;;4.35;57.48;100183.47;5049153;28;20536;-52
2022/10/27 04:45:21;;;;;;;15.10;7.70;;;;;;;4.35;57.75;100185.22;5055041;28;20037;-54
2022/10/27 04:47:46;;;;;;;13.25;7.18;;;;;;;4.35;57.54;100187.88;5055049;28;20082;-57
2022/10/27 04:50:13;;;;;;;12.50;7.32;;;;;;;4.39;57.07;100194.75;5043561;28;20416;-58
2022/10/27 04:52:39;;;;;;;13.82;7.60;;;;;;;4.43;57.55;100198.97;5049558;28;20033;-61
2022/10/27 04:55:05;;;;;;;12.35;7.15;;;;;;;4.42;56.84;100184.88;5054536;28;20481;-57
2022/10/27 04:57:31;;;;;;;12.30;7.65;;;;;;;4.57;56.68;100182.38;5045198;28;20029;-58
2022/10/27 04:59:56;;;;;;;11.40;7.85;;;;;;;4.66;56.49;100187.22;5035155;28;20037;-62
2022/10/27 05:02:22;;;;;;;12.68;7.53;;;;;;;4.51;56.72;100159.69;5047662;28;20074;-79
2022/10/27 05:04:47;;;;;;;11.27;7.20;;;;;;;4.71;56.52;100185.19;5036833;28;20040;-61
2022/10/27 05:07:13;;;;;;;12.75;6.93;;;;;;;4.56;56.22;100159.44;5034066;28;20448;-61
2022/10/27 05:09:38;;;;;;;13.93;8.55;;;;;;;4.75;56.76;100188.56;5035585;28;20033;-61
2022/10/27 05:12:03;;;;;;;14.07;7.70;;;;;;;4.61;56.60;100170.69;5048248;28;20029;-62
2022/10/27 05:14:29;;;;;;;16.92;8.02;;;;;;;4.72;56.62;100186.91;5053499;28;20036;-60
2022/10/27 05:16:54;;;;;;;19.38;7.38;;;;;;;4.71;56.98;100194.97;5054546;28;20040;-62
2022/10/27 05:19:20;;;;;;;18.80;7.85;;;;;;;4.74;56.62;100200.97;5054860;28;20044;-61
2022/10/27 05:21:45;;;;;;;15.23;7.57;;;;;;;4.77;56.84;100196.44;5043195;28;20447;-61
2022/10/27 05:24:11;;;;;;;17.08;7.68;;;;;;;4.78;56.64;100190.19;5034624;28;20044;-63
2022/10/27 05:26:36;;;;;;;13.77;7.82;;;;;;;4.83;56.91;100190.84;5033833;28;20033;-61
2022/10/27 05:29:02;;;;;;;14.25;7.47;;;;;;;4.87;56.32;100190.56;5035890;28;20033;-61
2022/10/27 05:31:27;;;;;;;14.27;8.75;;;;;;;4.84;56.61;100192.56;5042407;28;20447;-62
2022/10/27 05:33:53;;;;;;;16.23;7.88;;;;;;;4.74;56.63;100200.97;5053182;28;20036;-63
2022/10/27 05:36:18;;;;;;;13.95;7.97;;;;;;;4.72;57.12;100196.69;5053816;28;20167;-63
2022/10/27 05:38:45;;;;;;;20.10;8.77;;;;;;;4.72;56.58;100197.53;5054483;28;20056;-60
2022/10/27 05:41:11;;;;;;;18.50;7.93;;;;;;;4.81;57.18;100208.59;5048190;28;20021;-61
2022/10/27 05:43:37;;;;;;;11.55;8.15;;;;;;;4.93;56.90;100201.81;5034112;28;20121;-61
2022/10/27 05:46:04;;;;;;;13.35;8.75;;;;;;;4.88;57.19;100202.91;5034054;28;20368;-62
2022/10/27 05:48:29;;;;;;;19.60;8.43;;;;;;;4.97;57.08;100203.41;5042950;28;20455;-61
2022/10/27 05:50:55;;;;;;;14.45;8.55;;;;;;;5.09;57.28;100209.88;5050130;28;20063;-61
2022/10/27 05:53:21;;;;;;;14.63;8.25;;;;;;;5.23;56.95;100212.66;5033880;28;20037;-61
2022/10/27 05:55:47;;;;;;;16.25;8.38;;;;;;;5.44;55.97;100215.13;5037826;28;20033;-61
2022/10/27 05:58:12;;;;;;;14.60;9.05;;;;;;;5.59;56.06;100210.78;5053590;28;20029;-62
2022/10/27 06:00:38;;;;;;;15.45;8.57;;;;;;;5.81;55.89;100221.13;5052842;28;20044;-62
2022/10/27 06:03:06;;;;;;;12.45;8.63;;;;;;;6.03;55.29;100214.66;5033779;28;20033;-61
2022/10/27 06:05:35;;;;;;;16.92;10.13;;;;;;;6.29;54.64;100220.31;5033528;28;20095;-61
2022/10/27 06:08:01;;;;;;;16.88;9.35;;;;;;;6.41;54.11;100214.28;5050054;28;20056;-61
2022/10/27 06:10:28;;;;;;;16.90;9.20;;;;;;;6.47;54.09;100213.94;5053265;28;20028;-61
2022/10/27 06:13:04;;;;;;;19.48;9.50;;;;;;;6.56;54.50;100215.19;5033960;28;20041;-61
2022/10/27 06:15:30;;;;;;;18.52;9.50;;;;;;;6.41;54.64;100214.28;5039699;28;20064;-61
2022/10/27 06:17:56;;;;;;;17.35;9.57;;;;;;;6.25;55.31;100213.44;5053027;28;20090;-61
2022/10/27 06:20:21;;;;;;;16.05;8.85;;;;;;;6.18;55.27;100205.81;5041937;28;20041;-60
2022/10/27 06:22:47;;;;;;;18.75;8.50;;;;;;;6.30;55.34;100224.69;5033070;28;20106;-62
2022/10/27 06:25:13;;;;;;;15.57;9.32;;;;;;;6.34;54.95;100220.91;5033577;28;20040;-61
2022/10/27 06:27:38;;;;;;;15.18;8.73;;;;;;;6.40;55.07;100223.22;5033146;28;20240;-58
2022/10/27 06:30:04;;;;;;;13.77;8.82;;;;;;;6.42;55.16;100237.28;5033597;28;20037;-58
2022/10/27 06:32:30;;;;;;;15.05;8.80;;;;;;;6.36;55.27;100221.69;5048524;28;20037;-61
2022/10/27 06:34:55;;;;;;;15.48;9.88;;;;;;;6.36;55.20;100224.34;5039104;28;20415;-61
2022/10/27 06:37:20;;;;;;;15.55;9.70;;;;;;;6.33;55.57;100237.81;5033242;28;20436;-60
2022/10/27 06:39:46;;;;;;;15.00;9.65;;;;;;;6.30;55.52;100227.34;5033051;28;20122;-61
2022/10/27 06:42:12;;;;;;;14.80;8.90;;;;;;;6.06;56.20;100216.28;5035231;28;20049;-61
2022/10/27 06:44:37;;;;;;;18.92;10.63;;;;;;;5.98;56.50;100237.91;5033289;28;20037;-62
2022/10/27 06:47:03;;;;;;;20.83;9.57;;;;;;;5.94;56.64;100247.00;5035435;28;20393;-62
2022/10/27 06:49:28;;;;;;;21.15;10.50;;;;;;;5.99;56.66;100242.28;5045758;28;20482;-63
2022/10/27 06:51:54;;;;;;;15.40;9.82;;;;;;;6.23;56.22;100249.88;5044344;28;20338;-61
2022/10/27 06:54:20;;;;;;;16.88;9.38;;;;;;;6.40;55.01;100239.16;5052905;28;20108;-62
2022/10/27 06:56:46;;;;;;;18.38;9.95;;;;;;;6.55;55.21;100252.56;5045076;28;20383;-64
2022/10/27 06:59:11;;;;;;;14.02;9.35;;;;;;;6.66;54.99;100247.47;5032544;28;20033;-62
2022/10/27 07:01:37;;;;;;;17.52;9.45;;;;;;;6.85;54.27;100247.25;5049314;28;20037;-61
2022/10/27 07:04:02;;;;;;;20.38;10.07;;;;;;;6.96;54.05;100245.78;5050701;28;20045;-61
2022/10/27 07:06:28;;;;;;;24.45;9.90;;;;;;;7.23;53.60;100242.41;5051438;28;20041;-61
2022/10/27 07:08:53;;;;;;;22.05;8.75;;;;;;;7.81;51.98;100248.66;5047095;28;20574;-63
2022/10/27 07:11:19;;;;;;;15.75;9.45;;;;;;;8.59;50.01;100239.31;5047648;28;20367;-67
2022/10/27 07:13:44;;;;;;;16.52;9.32;;;;;;;10.25;46.69;100250.28;5031499;28;20037;-61
2022/10/27 07:16:10;;;;;;;14.80;9.60;;;;;;;12.22;41.83;100242.56;5032931;28;20037;-61
2022/10/27 07:18:37;;;;;;;12.23;8.38;;;;;;;13.14;39.63;100243.97;5062975;28;20040;-56
2022/10/27 07:21:04;;;;;;;13.80;9.15;;;;;;;12.81;39.80;100244.00;5071911;28;20047;-61
2022/10/27 07:23:30;;;;;;;16.45;9.82;;;;;;;12.03;41.17;100249.41;5071869;28;20029;-60
2022/10/27 07:25:55;;;;;;;23.77;9.93;;;;;;;11.44;42.33;100254.00;5054567;28;20090;-62
2022/10/27 07:28:21;;;;;;;16.75;10.30;;;;;;;11.00;43.53;100251.09;5043378;28;20037;-59
2022/10/27 07:30:47;;;;;;;14.52;9.50;;;;;;;10.75;43.98;100248.41;5048645;28;20455;-62
2022/10/27 07:33:13;;;;;;;17.98;9.30;;;;;;;10.85;43.69;100253.94;5052163;28;20033;-58
2022/10/27 07:35:39;;;;;;;18.58;8.95;;;;;;;10.90;43.67;100250.91;5051044;28;20055;-56
2022/10/27 07:38:05;;;;;;;20.85;9.80;;;;;;;11.08;43.77;100253.16;5038957;28;20040;-56
2022/10/27 07:40:31;;;;;;;17.42;9.35;;;;;;;11.17;42.94;100257.81;5041873;28;20037;-61
2022/10/27 07:42:58;;;;;;;22.50;10.52;;;;;;;11.15;43.03;100251.72;5044853;28;20118;-58
2022/10/27 07:45:25;;;;;;;18.23;9.45;;;;;;;11.08;43.00;100254.03;5055590;28;20033;-59
2022/10/27 07:47:53;;;;;;;14.68;9.10;;;;;;;10.83;43.12;100223.72;5054443;28;20072;-55
2022/10/27 07:50:23;;;;;;;23.50;9.70;;;;;;;11.17;43.17;100252.47;5051635;28;20056;-58
2022/10/27 07:52:51;;;;;;;15.00;8.85;;;;;;;11.32;43.01;100251.28;5052693;28;20348;-54
2022/10/27 07:55:19;;;;;;;19.67;8.85;;;;;;;11.52;42.46;100248.03;5052831;28;20448;-62
2022/10/27 07:57:45;;;;;;;20.10;9.20;;;;;;;11.62;42.07;100249.88;5052871;28;20045;-54
2022/10/27 08:00:14;;;;;;;14.32;8.63;;;;;;;11.70;41.91;100248.41;5053136;28;20423;-55
2022/10/27 08:02:39;;;;;;;19.52;8.95;;;;;;;11.65;41.71;100245.25;5055913;28;20346;-55
2022/10/27 08:05:05;;;;;;;19.52;8.27;;;;;;;11.56;42.07;100250.34;5067006;28;20040;-59
2022/10/27 08:07:32;;;;;;;16.13;7.45;;;;;;;11.56;42.38;100236.94;5054503;28;20021;-55
2022/10/27 08:09:57;;;;;;;12.98;7.47;;;;;;;11.49;42.25;100235.72;5053306;28;20052;-55
2022/10/27 08:12:22;;;;;;;19.70;8.52;;;;;;;11.58;42.09;100248.41;5054291;28;20068;-54
2022/10/27 08:14:48;;;;;;;16.95;7.82;;;;;;;11.60;42.07;100243.78;5051002;28;20037;-56
2022/10/27 08:17:14;;;;;;;12.32;7.85;;;;;;;11.59;42.14;100247.44;5053764;28;20059;-54
2022/10/27 08:19:40;;;;;;;16.17;7.05;;;;;;;11.49;42.69;100244.63;5053416;28;20056;-57
2022/10/27 08:22:06;;;;;;;13.18;7.75;;;;;;;11.39;42.57;100243.63;5054038;28;20383;-57
2022/10/27 08:24:31;;;;;;;16.30;8.52;;;;;;;11.17;43.15;100253.31;5054674;28;20025;-54
2022/10/27 08:26:57;;;;;;;16.08;8.43;;;;;;;10.98;43.36;100261.91;5053458;28;20032;-57
2022/10/27 08:29:22;;;;;;;17.02;8.43;;;;;;;10.81;43.71;100252.47;5070378;28;20025;-55
2022/10/27 08:31:48;;;;;;;16.30;8.30;;;;;;;10.62;44.18;100253.81;5048615;28;20040;-58
2022/10/27 08:34:13;;;;;;;20.88;8.35;;;;;;;10.48;44.77;100251.28;5048682;28;20033;-60
2022/10/27 08:36:39;;;;;;;16.55;7.95;;;;;;;10.42;44.97;100260.66;5051872;28;20069;-60
2022/10/27 08:39:05;;;;;;;18.13;8.88;;;;;;;10.37;45.27;100262.78;5049991;28;20276;-62
2022/10/27 08:41:56;;;;;;;13.45;8.48;;;;;;;10.35;45.50;100264.69;5046486;28;20037;-58
2022/10/27 08:44:26;;;;;;;21.27;9.20;;;;;;;10.31;45.40;100258.72;5045991;28;20124;-60
2022/10/27 08:46:55;;;;;;;18.08;8.75;;;;;;;10.29;45.41;100268.69;5053194;28;20041;-60
2022/10/27 08:49:43;;;;;;;14.93;8.82;;;;;;;10.22;45.79;100266.56;5054290;28;20032;-61
2022/10/27 08:52:18;;;;;;;18.75;7.70;;;;;;;10.03;46.31;100265.19;5054895;28;20037;-59
2022/10/27 08:54:49;;;;;;;19.48;8.82;;;;;;;10.02;45.86;100263.50;5048345;28;20048;-59
2022/10/27 08:57:27;;;;;;;18.85;9.63;;;;;;;10.02;46.08;100267.03;5054247;28;20344;-61
2022/10/27 08:59:56;;;;;;;19.00;9.27;;;;;;;9.95;46.09;100255.03;5054854;28;20442;-61
2022/10/27 09:02:50;;;;;;;18.50;9.35;;;;;;;10.00;46.26;100262.75;5054868;28;20040;-56
2022/10/27 09:05:31;;;;;;;16.27;9.10;;;;;;;10.07;45.98;100265.84;5045491;28;20033;-59
2022/10/27 09:08:04;;;;;;;20.63;8.50;;;;;;;10.10;46.25;100260.28;5034607;28;20417;-60
2022/10/27 09:10:57;;;;;;;16.70;9.18;;;;;;;10.19;46.01;100264.94;5047634;28;20025;-57
2022/10/27 09:13:41;;;;;;;24.60;8.48;;;;;;;10.04;46.24;100248.19;5051408;28;20036;-62
2022/10/27 09:16:17;;;;;;;19.65;9.73;;;;;;;9.96;46.20;100258.59;5034543;28;20063;-62
2022/10/27 09:18:47;;;;;;;23.85;9.65;;;;;;;9.87;46.38;100260.09;5034470;28;20028;-62
2022/10/27 09:21:25;;;;;;;20.83;9.23;;;;;;;9.81;46.72;100253.34;5048281;28;20087;-63
2022/10/27 09:24:01;;;;;;;17.75;9.23;;;;;;;9.76;46.62;100244.81;5049451;28;20094;-62
2022/10/27 09:26:31;;;;;;;28.30;12.48;;;;;;;9.82;47.14;100260.41;5049366;28;20112;-63
2022/10/27 09:29:01;;;;;;;17.92;8.73;;;;;;;9.75;47.37;100253.78;5053918;28;20037;-60
2022/10/27 09:31:35;;;;;;;16.25;8.43;;;;;;;9.73;47.43;100259.22;5054038;28;20501;-60
2022/10/27 09:34:15;;;;;;;19.30;9.48;;;;;;;9.68;47.68;100255.19;5053824;28;20091;-61
2022/10/27 09:36:40;;;;;;;22.60;9.50;;;;;;;9.53;47.59;100255.28;5053656;28;20103;-60
2022/10/27 09:39:08;;;;;;;16.40;9.07;;;;;;;9.50;48.10;100260.84;5049945;28;20520;-58
2022/10/27 09:41:33;;;;;;;19.27;9.02;;;;;;;9.21;48.50;100228.13;5048376;28;20049;-61
2022/10/27 09:43:59;;;;;;;17.20;8.45;;;;;;;9.33;48.67;100252.16;5051519;28;20083;-60
2022/10/27 09:46:29;;;;;;;18.95;8.93;;;;;;;9.39;48.33;100255.38;5052847;28;20435;-61
2022/10/27 09:49:00;;;;;;;13.27;7.60;;;;;;;9.38;48.39;100262.56;5033985;28;20180;-63
2022/10/27 09:51:42;;;;;;;19.70;9.50;;;;;;;9.32;48.67;100263.81;5038905;28;20029;-63
2022/10/27 09:54:31;;;;;;;20.05;10.07;;;;;;;9.32;48.89;100268.34;5033832;28;20037;-62
2022/10/27 09:57:09;;;;;;;19.08;10.38;;;;;;;9.38;48.57;100267.03;5032977;28;20364;-62
2022/10/27 09:59:36;;;;;;;21.05;10.63;;;;;;;9.36;48.42;100259.13;5044039;28;20036;-62
2022/10/27 10:02:05;;;;;;;19.42;11.35;;;;;;;9.51;48.09;100262.56;5047748;28;20558;-62
2022/10/27 10:04:30;;;;;;;22.20;11.35;;;;;;;9.55;48.12;100269.41;5069177;28;20041;-60
2022/10/27 10:07:03;;;;;;;20.67;10.25;;;;;;;9.54;47.74;100262.34;5043533;28;20040;-62
2022/10/27 10:09:33;;;;;;;20.92;11.43;;;;;;;9.46;47.94;100270.88;5058281;28;20029;-63
2022/10/27 10:12:24;;;;;;;24.23;10.48;;;;;;;9.56;48.05;100267.59;5038533;28;20120;-63
2022/10/27 10:15:08;;;;;;;24.92;11.27;;;;;;;9.42;48.32;100280.09;5052952;28;20073;-62
2022/10/27 10:17:34;;;;;;;22.17;11.93;;;;;;;9.10;48.50;100243.06;5044999;28;20029;-62
2022/10/27 10:19:59;;;;;;;22.60;11.82;;;;;;;9.20;49.01;100272.69;5041606;28;20128;-62
2022/10/27 10:22:26;;;;;;;20.08;11.57;;;;;;;9.26;48.95;100277.63;5050411;28;20029;-65
2022/10/27 10:24:54;;;;;;;24.52;12.82;;;;;;;9.34;48.51;100272.59;5050385;28;20055;-63
2022/10/27 10:27:32;;;;;;;28.08;11.82;;;;;;;9.53;48.38;100287.38;5069253;28;20033;-63
2022/10/27 10:30:04;;;;;;;22.10;12.00;;;;;;;9.31;48.21;100255.94;5053277;28;20464;-64
2022/10/27 10:32:35;;;;;;;24.90;13.35;;;;;;;9.41;48.53;100281.06;5031167;28;20045;-63
2022/10/27 10:35:02;;;;;;;23.02;13.02;;;;;;;9.27;48.86;100273.97;5031491;28;20083;-62
2022/10/27 10:37:38;;;;;;;29.90;12.65;;;;;;;9.31;48.86;100275.47;5015349;28;20029;-62
2022/10/27 10:40:12;;;;;;;30.85;12.52;;;;;;;9.33;49.00;100281.56;5035727;28;20045;-63
2022/10/27 10:42:38;;;;;;;25.33;12.48;;;;;;;9.14;49.21;100283.78;5070917;28;20052;-62
2022/10/27 10:45:25;;;;;;;33.78;12.57;;;;;;;9.21;49.94;100286.88;5071347;28;20049;-62
2022/10/27 10:48:05;;;;;;;26.08;12.85;;;;;;;9.08;49.65;100277.03;5071136;28;20056;-63
2022/10/27 10:50:41;;;;;;;26.08;14.38;;;;;;;9.03;49.50;100285.34;5048921;28;20041;-63
2022/10/27 10:53:37;;;;;;;31.63;14.73;;;;;;;9.10;49.80;100280.47;5014870;28;20052;-64
2022/10/27 10:56:15;;;;;;;26.95;14.57;;;;;;;9.04;49.26;100267.50;5047944;28;20055;-62
2022/10/27 10:58:41;;;;;;;27.80;13.60;;;;;;;9.11;49.39;100278.63;5070685;28;20036;-63
2022/10/27 11:01:08;;;;;;;28.13;13.25;;;;;;;9.08;49.49;100285.06;5050998;28;20126;-62
2022/10/27 11:03:39;;;;;;;22.73;13.18;;;;;;;9.10;49.63;100295.63;5052577;28;20055;-62
2022/10/27 11:06:16;;;;;;;27.25;14.55;;;;;;;9.13;49.81;100290.06;5052734;28;20025;-62
2022/10/27 11:08:43;;;;;;;28.90;13.40;;;;;;;9.01;49.69;100297.09;5051502;28;20028;-62
2022/10/27 11:11:17;;;;;;;30.25;14.50;;;;;;;9.01;49.90;100299.75;5067471;28;20029;-63
2022/10/27 11:13:54;;;;;;;27.27;13.52;;;;;;;9.00;50.01;100292.72;5052245;28;20414;-63
2022/10/27 11:16:20;;;;;;;23.98;13.38;;;;;;;8.86;50.15;100296.28;5068481;28;20094;-61
2022/10/27 11:18:51;;;;;;;26.52;13.43;;;;;;;8.70;50.22;100257.28;5051142;28;20116;-62
2022/10/27 11:21:38;;;;;;;26.02;14.43;;;;;;;8.90;50.55;100295.13;5052492;28;20033;-61
2022/10/27 11:24:19;;;;;;;29.67;15.30;;;;;;;8.97;50.67;100301.81;5052199;28;20029;-62
2022/10/27 11:27:00;;;;;;;33.20;14.45;;;;;;;8.96;50.65;100297.41;5051922;28;20171;-62
2022/10/27 11:29:41;;;;;;;28.25;14.40;;;;;;;8.92;50.68;100293.22;5052197;28;20140;-61
2022/10/27 11:32:32;;;;;;;32.30;14.65;;;;;;;8.87;50.90;100298.00;5052086;28;20129;-61